createdAt,value
2023-03-19T00:00:26.965Z,0.42
2023-03-19T00:03:14.615Z,0.37
2023-03-19T00:05:42.699Z,0.32
2023-03-19T00:08:14.372Z,0.30
2023-03-19T00:10:42.204Z,0.24
2023-03-19T00:13:10.435Z,0.21
2023-03-19T00:15:37.966Z,0.23
2023-03-19T00:18:06.587Z,0.26
2023-03-19T00:20:34.194Z,0.26
2023-03-19T00:23:01.810Z,0.17
2023-03-19T00:25:29.409Z,0.11
2023-03-19T00:27:56.968Z,0.12
2023-03-19T00:30:24.875Z,0.05
2023-03-19T00:32:52.586Z,-0.05
2023-03-19T00:35:20.711Z,-0.12
2023-03-19T00:37:48.620Z,-0.15
2023-03-19T00:40:16.317Z,-0.19
2023-03-19T00:42:44.958Z,-0.23
2023-03-19T00:45:13.310Z,-0.24
2023-03-19T00:47:40.998Z,-0.19
2023-03-19T00:50:09.240Z,-0.15
2023-03-19T00:52:36.787Z,-0.18
2023-03-19T00:55:04.747Z,-0.21
2023-03-19T00:57:32.546Z,-0.23
2023-03-19T01:00:00.183Z,-0.22
2023-03-19T01:02:27.985Z,-0.18
2023-03-19T01:04:55.933Z,-0.17
2023-03-19T01:07:23.661Z,-0.16
2023-03-19T01:09:52.098Z,-0.17
2023-03-19T01:12:19.949Z,-0.21
2023-03-19T01:14:47.678Z,-0.22
2023-03-19T01:17:15.501Z,-0.22
2023-03-19T01:19:43.070Z,-0.20
2023-03-19T01:22:10.673Z,-0.21
2023-03-19T01:24:38.223Z,-0.24
2023-03-19T01:27:06.078Z,-0.32
2023-03-19T01:29:33.782Z,-0.34
2023-03-19T01:32:01.776Z,-0.29
2023-03-19T01:34:29.386Z,-0.29
2023-03-19T01:36:56.913Z,-0.32
2023-03-19T01:39:25.747Z,-0.32
2023-03-19T01:41:53.433Z,-0.36
2023-03-19T01:44:21.209Z,-0.40
2023-03-19T01:46:48.891Z,-0.46
2023-03-19T01:49:16.606Z,-0.50
2023-03-19T01:51:44.164Z,-0.51
2023-03-19T01:54:12.306Z,-0.55
2023-03-19T01:56:40.383Z,-0.59
2023-03-19T01:59:07.917Z,-0.60
2023-03-19T02:01:35.993Z,-0.62
2023-03-19T02:04:03.615Z,-0.76
2023-03-19T02:06:31.832Z,-0.83
2023-03-19T02:08:59.546Z,-0.85
2023-03-19T02:11:28.050Z,-0.88
2023-03-19T02:13:56.001Z,-0.92
2023-03-19T02:16:24.078Z,-0.90
2023-03-19T02:18:52.023Z,-0.90
2023-03-19T02:21:19.654Z,-0.93
2023-03-19T02:23:47.655Z,-0.93
2023-03-19T02:26:15.244Z,-0.97
2023-03-19T02:28:44.037Z,-1.04
2023-03-19T02:31:11.790Z,-1.13
2023-03-19T02:33:39.465Z,-1.20
2023-03-19T02:36:07.161Z,-1.19
2023-03-19T02:38:34.946Z,-1.17
2023-03-19T02:41:02.853Z,-1.19
2023-03-19T02:43:30.917Z,-1.22
2023-03-19T02:45:58.675Z,-1.24
2023-03-19T02:48:26.750Z,-1.25
2023-03-19T02:50:54.418Z,-1.24
2023-03-19T02:53:22.087Z,-1.28
2023-03-19T02:55:49.731Z,-1.27
2023-03-19T02:58:17.740Z,-1.40
2023-03-19T03:00:48.668Z,-1.55
2023-03-19T03:03:17.339Z,-1.61
2023-03-19T03:05:44.941Z,-1.60
2023-03-19T03:08:12.541Z,-1.60
2023-03-19T03:10:42.890Z,-1.65
2023-03-19T03:13:10.729Z,-1.66
2023-03-19T03:15:38.354Z,-1.64
2023-03-19T03:18:06.197Z,-1.60
2023-03-19T03:20:34.579Z,-1.57
2023-03-19T03:23:03.037Z,-1.63
2023-03-19T03:25:30.788Z,-1.66
2023-03-19T03:27:58.383Z,-1.62
2023-03-19T03:30:25.966Z,-1.62
2023-03-19T03:32:53.547Z,-1.63
2023-03-19T03:35:22.794Z,-1.66
2023-03-19T03:37:50.594Z,-1.75
2023-03-19T03:40:18.247Z,-1.85
2023-03-19T03:42:45.818Z,-1.84
2023-03-19T03:45:13.412Z,-1.84
2023-03-19T03:47:40.977Z,-1.88
2023-03-19T03:50:11.020Z,-1.88
2023-03-19T03:52:38.813Z,-1.88
2023-03-19T03:55:06.726Z,-1.89
2023-03-19T03:57:34.421Z,-1.91
2023-03-19T04:00:02.157Z,-1.96
2023-03-19T04:02:29.824Z,-2.02
2023-03-19T04:04:57.886Z,-2.03
2023-03-19T04:07:25.517Z,-2.09
2023-03-19T04:09:53.345Z,-2.12
2023-03-19T04:12:21.003Z,-2.06
2023-03-19T04:14:48.599Z,-2.03
2023-03-19T04:17:16.131Z,-2.12
2023-03-19T04:19:47.174Z,-2.18
2023-03-19T04:22:14.859Z,-2.20
2023-03-19T04:24:42.370Z,-2.24
2023-03-19T04:27:09.989Z,-2.27
2023-03-19T04:29:37.684Z,-2.25
2023-03-19T04:32:05.267Z,-2.22
2023-03-19T04:34:33.313Z,-2.20
2023-03-19T04:37:01.769Z,-2.16
2023-03-19T04:39:33.584Z,-2.13
2023-03-19T04:42:01.168Z,-2.10
2023-03-19T04:44:28.868Z,-2.09
2023-03-19T04:46:56.562Z,-2.10
2023-03-19T04:49:24.655Z,-2.10
2023-03-19T04:51:52.342Z,-2.08
2023-03-19T04:54:20.642Z,-2.09
2023-03-19T04:56:51.273Z,-2.13
2023-03-19T04:59:18.886Z,-2.20
2023-03-19T05:01:46.585Z,-2.22
2023-03-19T05:04:14.385Z,-2.22
2023-03-19T05:06:42.063Z,-2.29
2023-03-19T05:09:09.727Z,-2.36
2023-03-19T05:11:37.557Z,-2.35
2023-03-19T05:14:05.675Z,-2.36
2023-03-19T05:16:36.038Z,-2.33
2023-03-19T05:19:03.915Z,-2.29
2023-03-19T05:21:32.102Z,-2.26
2023-03-19T05:23:59.796Z,-2.22
2023-03-19T05:26:27.427Z,-2.21
2023-03-19T05:28:55.222Z,-2.24
2023-03-19T05:31:22.880Z,-2.27
2023-03-19T05:33:51.223Z,-2.27
2023-03-19T05:36:19.212Z,-2.23
2023-03-19T05:38:46.929Z,-2.22
2023-03-19T05:41:14.854Z,-2.15
2023-03-19T05:43:43.276Z,-2.11
2023-03-19T05:46:11.711Z,-2.04
2023-03-19T05:48:39.359Z,-1.94
2023-03-19T05:51:07.477Z,-1.84
2023-03-19T05:53:35.420Z,-1.79
2023-03-19T05:56:03.043Z,-1.82
2023-03-19T05:58:31.033Z,-1.80
2023-03-19T06:00:58.905Z,-1.75
2023-03-19T06:03:27.290Z,-1.70
2023-03-19T06:05:54.952Z,-1.63
2023-03-19T06:08:23.498Z,-1.54
2023-03-19T06:10:51.473Z,-1.49
2023-03-19T06:13:19.141Z,-1.43
2023-03-19T06:15:47.204Z,-1.42
2023-03-19T06:18:14.781Z,-1.42
2023-03-19T06:20:42.547Z,-1.40
2023-03-19T06:23:10.292Z,-1.32
2023-03-19T06:25:38.528Z,-1.25
2023-03-19T06:28:06.401Z,-1.16
2023-03-19T06:30:36.912Z,-1.09
2023-03-19T06:33:05.132Z,-1.01
2023-03-19T06:35:33.098Z,-0.96
2023-03-19T06:38:01.001Z,-0.91
2023-03-19T06:40:28.877Z,-0.84
2023-03-19T06:42:57.336Z,-0.78
2023-03-19T06:45:25.506Z,-0.70
2023-03-19T06:47:53.742Z,-0.64
2023-03-19T06:50:21.593Z,-0.54
2023-03-19T06:52:52.213Z,-0.43
2023-03-19T06:55:20.774Z,-0.30
2023-03-19T06:57:49.890Z,-0.19
2023-03-19T07:00:18.785Z,-0.07
2023-03-19T07:02:46.398Z,0.01
2023-03-19T07:05:14.204Z,0.08
2023-03-19T07:07:42.761Z,0.16
2023-03-19T07:10:13.356Z,0.23
2023-03-19T07:12:41.482Z,0.32
2023-03-19T07:15:09.398Z,0.44
2023-03-19T07:17:37.061Z,0.55
2023-03-19T07:20:04.974Z,0.67
2023-03-19T07:22:32.602Z,0.79
2023-03-19T07:25:00.403Z,0.93
2023-03-19T07:27:28.479Z,1.05
2023-03-19T07:29:56.259Z,1.17
2023-03-19T07:32:23.868Z,1.32
2023-03-19T07:34:51.845Z,1.46
2023-03-19T07:37:22.379Z,1.59
2023-03-19T07:39:50.995Z,1.74
2023-03-19T07:42:18.913Z,1.85
2023-03-19T07:44:46.896Z,1.94
2023-03-19T07:47:27.850Z,2.06
2023-03-19T07:49:56.768Z,2.20
2023-03-19T07:52:24.387Z,2.33
2023-03-19T07:54:52.960Z,2.48
2023-03-19T07:57:21.159Z,2.67
2023-03-19T07:59:49.212Z,2.91
2023-03-19T08:02:16.920Z,3.12
2023-03-19T08:04:44.681Z,3.29
2023-03-19T08:07:12.999Z,3.43
2023-03-19T08:09:41.976Z,3.57
2023-03-19T08:12:09.653Z,3.70
2023-03-19T08:14:37.536Z,3.87
2023-03-19T08:17:05.331Z,4.06
2023-03-19T08:19:33.406Z,4.24
2023-03-19T08:22:01.813Z,4.40
2023-03-19T08:24:29.479Z,4.52
2023-03-19T08:27:00.162Z,4.58
2023-03-19T08:29:28.016Z,4.63
2023-03-19T08:31:56.312Z,4.73
2023-03-19T08:34:24.315Z,4.83
2023-03-19T08:36:52.172Z,4.93
2023-03-19T08:39:20.338Z,5.00
2023-03-19T08:41:48.418Z,5.10
2023-03-19T08:44:17.051Z,5.18
2023-03-19T08:46:44.711Z,5.30
2023-03-19T08:49:12.676Z,5.46
2023-03-19T08:51:40.598Z,5.56
2023-03-19T08:54:11.244Z,5.59
2023-03-19T08:56:40.581Z,5.62
2023-03-19T08:59:08.362Z,5.72
2023-03-19T09:01:37.778Z,5.82
2023-03-19T09:04:05.473Z,5.87
2023-03-19T09:06:33.069Z,5.93
2023-03-19T09:09:01.612Z,6.03
2023-03-19T09:11:30.105Z,6.15
2023-03-19T09:13:58.053Z,6.24
2023-03-19T09:16:26.420Z,6.32
2023-03-19T09:18:54.381Z,6.37
2023-03-19T09:21:23.788Z,6.48
2023-03-19T09:23:52.907Z,6.55
2023-03-19T09:26:21.839Z,6.69
2023-03-19T09:28:49.577Z,6.78
2023-03-19T09:31:18.390Z,6.85
2023-03-19T09:33:46.505Z,6.92
2023-03-19T09:36:14.487Z,7.01
2023-03-19T09:38:42.297Z,7.13
2023-03-19T09:41:10.996Z,7.25
2023-03-19T09:43:44.107Z,7.49
2023-03-19T09:46:12.424Z,7.58
2023-03-19T09:48:40.206Z,7.60
2023-03-19T09:51:09.093Z,7.67
2023-03-19T09:53:38.132Z,7.76
2023-03-19T09:56:05.856Z,7.83
2023-03-19T09:58:36.206Z,7.89
2023-03-19T10:01:04.221Z,7.96
2023-03-19T10:03:32.979Z,8.01
2023-03-19T10:06:00.573Z,8.03
2023-03-19T10:08:28.752Z,8.16
2023-03-19T10:10:56.671Z,8.29
2023-03-19T10:13:25.638Z,8.37
2023-03-19T10:15:53.368Z,8.51
2023-03-19T10:21:02.715Z,8.78
2023-03-19T10:23:30.359Z,8.84
2023-03-19T10:25:57.924Z,8.88
2023-03-19T10:28:25.583Z,8.94
2023-03-19T10:30:53.216Z,8.99
2023-03-19T10:33:21.795Z,9.10
2023-03-19T10:35:49.482Z,9.27
2023-03-19T10:38:18.009Z,9.40
2023-03-19T10:40:46.822Z,9.52
2023-03-19T10:43:14.672Z,9.68
2023-03-19T10:45:42.536Z,9.75
2023-03-19T10:48:10.444Z,9.80
2023-03-19T10:50:39.236Z,9.78
2023-03-19T10:53:07.256Z,9.80
2023-03-19T10:55:35.049Z,9.81
2023-03-19T10:58:03.461Z,9.86
2023-03-19T11:00:35.479Z,9.92
2023-03-19T11:03:04.906Z,9.93
2023-03-19T11:05:34.329Z,9.93
2023-03-19T11:08:02.774Z,9.97
2023-03-19T11:10:30.898Z,10.01
2023-03-19T11:12:58.600Z,10.03
2023-03-19T11:15:26.455Z,10.05
2023-03-19T11:17:54.074Z,10.10
2023-03-19T11:20:22.355Z,10.19
2023-03-19T11:22:51.008Z,10.26
2023-03-19T11:25:19.581Z,10.35
2023-03-19T11:27:48.887Z,10.42
2023-03-19T11:30:18.898Z,10.42
2023-03-19T11:32:46.770Z,10.46
2023-03-19T11:35:14.615Z,10.52
2023-03-19T11:37:42.303Z,10.57
2023-03-19T11:40:10.828Z,10.62
2023-03-19T11:42:41.111Z,10.67
2023-03-19T11:45:09.060Z,10.76
2023-03-19T11:47:37.870Z,10.84
2023-03-19T11:50:05.873Z,10.94
2023-03-19T11:52:33.758Z,11.02
2023-03-19T11:55:01.539Z,11.12
2023-03-19T11:57:29.246Z,11.17
2023-03-19T11:59:56.824Z,11.20
2023-03-19T12:02:24.489Z,11.27
2023-03-19T12:04:52.181Z,11.28
2023-03-19T12:07:19.766Z,11.36
2023-03-19T12:09:48.006Z,11.38
2023-03-19T12:12:15.968Z,11.45
2023-03-19T12:14:43.972Z,11.53
2023-03-19T12:17:13.357Z,11.60
2023-03-19T12:19:41.432Z,11.62
2023-03-19T12:22:08.991Z,11.60
2023-03-19T12:24:38.055Z,11.56
2023-03-19T12:27:06.245Z,11.57
2023-03-19T12:29:33.967Z,11.63
2023-03-19T12:32:01.594Z,11.72
2023-03-19T12:34:30.012Z,11.77
2023-03-19T12:36:57.597Z,11.80
2023-03-19T12:39:25.717Z,11.82
2023-03-19T12:41:53.558Z,11.87
2023-03-19T12:44:22.146Z,11.92
2023-03-19T12:46:49.845Z,11.91
2023-03-19T12:49:17.475Z,11.94
2023-03-19T12:51:48.406Z,12.03
2023-03-19T12:54:16.559Z,12.05
2023-03-19T12:56:46.396Z,12.06
2023-03-19T12:59:13.935Z,12.05
2023-03-19T13:01:42.704Z,12.07
2023-03-19T13:04:10.452Z,12.08
2023-03-19T13:06:38.509Z,12.10
2023-03-19T13:09:06.392Z,12.11
2023-03-19T13:11:34.508Z,12.14
2023-03-19T13:14:02.372Z,12.22
2023-03-19T13:16:31.505Z,12.27
2023-03-19T13:18:59.275Z,12.28
2023-03-19T13:21:27.290Z,12.27
2023-03-19T13:23:54.861Z,12.27
2023-03-19T13:26:22.556Z,12.38
2023-03-19T13:28:54.366Z,12.52
2023-03-19T13:31:22.644Z,12.60
2023-03-19T13:33:51.712Z,12.63
2023-03-19T13:36:19.309Z,12.66
2023-03-19T13:38:46.985Z,12.71
2023-03-19T13:41:14.559Z,12.70
2023-03-19T13:43:43.147Z,12.73
2023-03-19T13:46:15.405Z,12.75
2023-03-19T13:48:44.176Z,12.80
2023-03-19T13:51:16.215Z,12.86
2023-03-19T13:53:45.198Z,12.90
2023-03-19T13:56:28.624Z,12.90
2023-03-19T13:58:57.578Z,12.91
2023-03-19T14:01:25.761Z,12.91
2023-03-19T14:03:54.427Z,12.91
2023-03-19T14:06:22.184Z,12.90
2023-03-19T14:08:51.915Z,12.90
2023-03-19T14:11:19.696Z,12.90
2023-03-19T14:13:47.330Z,12.90
2023-03-19T14:16:14.934Z,12.88
2023-03-19T14:18:42.740Z,12.87
2023-03-19T14:21:12.886Z,12.91
2023-03-19T14:23:46.323Z,12.96
2023-03-19T14:26:14.883Z,12.98
2023-03-19T14:28:44.929Z,12.97
2023-03-19T14:31:12.605Z,12.95
2023-03-19T14:33:41.273Z,12.92
2023-03-19T14:38:55.079Z,12.93
2023-03-19T14:41:22.785Z,12.95
2023-03-19T14:43:50.629Z,12.96
2023-03-19T14:46:18.283Z,13.01
2023-03-19T14:48:46.341Z,13.00
2023-03-19T14:51:14.013Z,12.98
2023-03-19T14:53:41.712Z,13.04
2023-03-19T14:56:09.356Z,13.05
2023-03-19T14:58:37.406Z,13.07
2023-03-19T15:01:05.562Z,13.08
2023-03-19T15:03:33.148Z,13.11
2023-03-19T15:06:01.144Z,13.11
2023-03-19T15:08:28.875Z,13.09
2023-03-19T15:10:56.416Z,13.04
2023-03-19T15:13:24.070Z,13.01
2023-03-19T15:15:51.735Z,12.96
2023-03-19T15:18:20.900Z,12.92
2023-03-19T15:20:51.058Z,12.87
2023-03-19T15:23:26.893Z,12.80
2023-03-19T15:26:00.938Z,12.76
2023-03-19T15:28:29.128Z,12.75
2023-03-19T15:31:03.594Z,12.74
2023-03-19T15:33:42.647Z,12.74
2023-03-19T15:36:12.177Z,12.73
2023-03-19T15:38:40.733Z,12.72
2023-03-19T15:41:08.707Z,12.70
2023-03-19T15:43:37.193Z,12.68
2023-03-19T15:46:04.901Z,12.66
2023-03-19T15:48:32.508Z,12.63
2023-03-19T15:51:00.207Z,12.60
2023-03-19T15:53:27.863Z,12.56
2023-03-19T15:55:55.532Z,12.53
2023-03-19T15:58:23.220Z,12.49
2023-03-19T16:00:53.930Z,12.45
2023-03-19T16:03:21.646Z,12.39
2023-03-19T16:05:49.280Z,12.34
2023-03-19T16:08:16.939Z,12.28
2023-03-19T16:10:46.114Z,12.21
2023-03-19T16:13:13.706Z,12.16
2023-03-19T16:15:43.580Z,12.08
2023-03-19T16:18:11.184Z,12.01
2023-03-19T16:20:38.710Z,11.94
2023-03-19T16:23:06.394Z,11.86
2023-03-19T16:25:34.992Z,11.77
2023-03-19T16:28:02.768Z,11.69
2023-03-19T16:30:34.596Z,11.62
2023-03-19T16:33:04.816Z,11.54
2023-03-19T16:35:32.561Z,11.46
2023-03-19T16:38:00.313Z,11.38
2023-03-19T16:40:28.033Z,11.31
2023-03-19T16:42:56.627Z,11.23
2023-03-19T16:45:24.270Z,11.16
2023-03-19T16:47:52.012Z,11.11
2023-03-19T16:50:21.952Z,11.02
2023-03-19T16:52:49.623Z,10.94
2023-03-19T16:55:17.212Z,10.85
2023-03-19T16:57:44.886Z,10.75
2023-03-19T17:00:15.842Z,10.65
2023-03-19T17:02:43.487Z,10.54
2023-03-19T17:05:11.113Z,10.46
2023-03-19T17:07:38.790Z,10.40
2023-03-19T17:10:06.753Z,10.34
2023-03-19T17:12:34.491Z,10.28
2023-03-19T17:15:04.487Z,10.21
2023-03-19T17:17:32.135Z,10.23
2023-03-19T17:19:59.703Z,10.19
2023-03-19T17:22:27.840Z,10.08
2023-03-19T17:24:56.617Z,9.98
2023-03-19T17:27:28.421Z,9.87
2023-03-19T17:29:56.035Z,9.81
2023-03-19T17:32:23.635Z,9.73
2023-03-19T17:34:51.385Z,9.70
2023-03-19T17:37:18.948Z,9.64
2023-03-19T17:39:47.084Z,9.58
2023-03-19T17:42:16.485Z,9.52
2023-03-19T17:44:44.090Z,9.48
2023-03-19T17:47:11.707Z,9.45
2023-03-19T17:49:42.449Z,9.38
2023-03-19T17:52:10.446Z,9.23
2023-03-19T17:54:38.084Z,9.00
2023-03-19T17:57:06.036Z,8.81
2023-03-19T17:59:33.615Z,8.69
2023-03-19T18:02:01.493Z,8.60
2023-03-19T18:04:29.199Z,8.54
2023-03-19T18:06:56.781Z,8.47
2023-03-19T18:09:24.574Z,8.42
2023-03-19T18:11:54.715Z,8.42
2023-03-19T18:14:22.290Z,8.44
2023-03-19T18:16:52.388Z,8.44
2023-03-19T18:19:20.830Z,8.44
2023-03-19T18:21:48.490Z,8.43
2023-03-19T18:24:16.150Z,8.41
2023-03-19T18:26:43.982Z,8.39
2023-03-19T18:29:11.602Z,8.35
2023-03-19T18:31:39.480Z,8.29
2023-03-19T18:34:07.255Z,8.23
2023-03-19T18:36:34.861Z,8.18
2023-03-19T18:39:03.687Z,8.11
2023-03-19T18:41:31.421Z,8.05
2023-03-19T18:43:59.390Z,7.98
2023-03-19T18:46:27.128Z,7.87
2023-03-19T18:48:55.308Z,7.80
2023-03-19T18:51:23.182Z,7.71
2023-03-19T18:53:50.869Z,7.60
2023-03-19T18:56:18.648Z,7.51
2023-03-19T18:58:46.282Z,7.46
2023-03-19T19:01:13.987Z,7.44
2023-03-19T19:03:41.655Z,7.44
2023-03-19T19:06:10.321Z,7.42
2023-03-19T19:08:37.889Z,7.35
2023-03-19T19:11:06.182Z,7.30
2023-03-19T19:13:46.231Z,7.25
2023-03-19T19:16:21.327Z,7.19
2023-03-19T19:18:48.981Z,7.13
2023-03-19T19:21:17.055Z,7.08
2023-03-19T19:23:44.631Z,7.01
2023-03-19T19:26:12.322Z,6.86
2023-03-19T19:28:41.485Z,6.74
2023-03-19T19:31:09.862Z,6.65
2023-03-19T19:33:37.563Z,6.57
2023-03-19T19:36:05.752Z,6.48
2023-03-19T19:38:33.625Z,6.34
2023-03-19T19:41:01.653Z,6.24
2023-03-19T19:43:31.445Z,6.19
2023-03-19T19:45:59.178Z,6.14
2023-03-19T19:48:26.920Z,6.12
2023-03-19T19:50:54.564Z,6.09
2023-03-19T19:53:23.344Z,6.07
2023-03-19T19:55:50.986Z,6.03
2023-03-19T19:58:18.924Z,5.99
2023-03-19T20:01:00.157Z,5.93
2023-03-19T20:03:33.617Z,5.86
2023-03-19T20:06:01.629Z,5.82
2023-03-19T20:08:29.466Z,5.79
2023-03-19T20:10:57.163Z,5.74
2023-03-19T20:13:27.852Z,5.72
2023-03-19T20:15:55.972Z,5.68
2023-03-19T20:18:24.755Z,5.64
2023-03-19T20:20:53.033Z,5.62
2023-03-19T20:23:20.965Z,5.60
2023-03-19T20:25:49.080Z,5.57
2023-03-19T20:28:16.972Z,5.55
2023-03-19T20:30:44.861Z,5.54
2023-03-19T20:33:12.873Z,5.52
2023-03-19T20:35:40.698Z,5.48
2023-03-19T20:38:08.618Z,5.42
2023-03-19T20:40:36.233Z,5.36
2023-03-19T20:43:04.008Z,5.28
2023-03-19T20:45:31.748Z,5.22
2023-03-19T20:47:59.912Z,5.14
2023-03-19T20:50:28.253Z,5.02
2023-03-19T20:53:01.270Z,4.89
2023-03-19T20:55:28.951Z,4.80
2023-03-19T20:57:57.246Z,4.72
2023-03-19T21:00:24.893Z,4.82
2023-03-19T21:02:52.970Z,5.33
2023-03-19T21:05:20.649Z,5.50
2023-03-19T21:07:48.316Z,5.34
2023-03-19T21:10:16.480Z,5.23
2023-03-19T21:12:46.831Z,5.20
2023-03-19T21:15:14.544Z,5.10
2023-03-19T21:17:42.401Z,4.97
2023-03-19T21:20:09.981Z,4.83
2023-03-19T21:22:37.684Z,4.78
2023-03-19T21:25:05.339Z,4.73
2023-03-19T21:27:33.298Z,4.63
2023-03-19T21:30:03.336Z,4.53
2023-03-19T21:32:32.016Z,4.48
2023-03-19T21:34:59.740Z,4.46
2023-03-19T21:37:27.675Z,4.43
2023-03-19T21:39:55.405Z,4.35
2023-03-19T21:42:23.258Z,4.29
2023-03-19T21:44:53.748Z,4.22
2023-03-19T21:47:26.153Z,4.08
2023-03-19T21:49:54.321Z,3.98
2023-03-19T21:52:22.041Z,3.92
2023-03-19T21:54:49.985Z,3.87
2023-03-19T21:57:17.784Z,3.83
2023-03-19T21:59:45.353Z,3.81
2023-03-19T22:02:13.017Z,3.77
2023-03-19T22:04:40.757Z,3.75
2023-03-19T22:07:08.463Z,3.72
2023-03-19T22:09:36.170Z,3.69
2023-03-19T22:12:03.819Z,3.66
2023-03-19T22:14:31.567Z,3.69
2023-03-19T22:16:59.698Z,3.74
2023-03-19T22:19:28.360Z,3.76
2023-03-19T22:21:55.943Z,3.77
2023-03-19T22:24:23.567Z,3.77
2023-03-19T22:26:51.306Z,3.72
2023-03-19T22:29:18.888Z,3.71
2023-03-19T22:31:47.053Z,3.69
2023-03-19T22:34:14.890Z,3.66
2023-03-19T22:36:42.493Z,3.64
2023-03-19T22:39:12.843Z,3.63
2023-03-19T22:41:42.748Z,3.60
2023-03-19T22:44:10.579Z,3.60
2023-03-19T22:46:38.914Z,3.60
2023-03-19T22:49:09.224Z,3.65
2023-03-19T22:51:40.033Z,3.62
2023-03-19T22:54:07.597Z,3.56
2023-03-19T22:56:35.243Z,3.54
2023-03-19T22:59:03.064Z,3.55
2023-03-19T23:01:31.419Z,3.49
2023-03-19T23:03:59.260Z,3.44
2023-03-19T23:06:30.919Z,3.41
2023-03-19T23:08:58.885Z,3.41
2023-03-19T23:11:27.054Z,3.40
2023-03-19T23:13:56.678Z,3.29
2023-03-19T23:16:24.748Z,3.17
2023-03-19T23:18:52.554Z,3.14
2023-03-19T23:21:20.820Z,3.19
2023-03-19T23:23:48.765Z,3.27
2023-03-19T23:26:16.362Z,3.35
2023-03-19T23:28:44.289Z,3.34
2023-03-19T23:31:12.515Z,3.31
2023-03-19T23:33:40.354Z,3.32
2023-03-19T23:36:08.339Z,3.34
2023-03-19T23:38:35.916Z,3.34
2023-03-19T23:41:03.440Z,3.31
2023-03-19T23:43:31.295Z,3.26
2023-03-19T23:45:58.932Z,3.20
2023-03-19T23:48:27.071Z,3.14
2023-03-19T23:50:54.641Z,3.13
2023-03-19T23:53:22.410Z,3.11
2023-03-19T23:55:49.957Z,3.06
2023-03-19T23:58:17.747Z,3.08
